createdAt,value
2019-03-09T00:01:14.924Z,3.40
2019-03-09T00:03:44.963Z,1.57
2019-03-09T00:06:17.583Z,2.03
2019-03-09T00:08:47.768Z,2.17
2019-03-09T00:11:18.172Z,1.53
2019-03-09T00:13:48.683Z,1.40
2019-03-09T00:16:18.792Z,3.37
2019-03-09T00:18:49.188Z,2.33
2019-03-09T00:21:19.533Z,1.83
2019-03-09T00:24:15.107Z,1.67
2019-03-09T00:27:01.072Z,2.03
2019-03-09T00:29:53.251Z,2.13
2019-03-09T00:32:25.433Z,1.93
2019-03-09T00:34:55.874Z,2.00
2019-03-09T00:37:26.057Z,3.00
2019-03-09T00:39:58.437Z,2.07
2019-03-09T00:42:28.326Z,1.77
2019-03-09T00:44:59.379Z,1.70
2019-03-09T00:47:29.904Z,1.60
2019-03-09T00:49:59.955Z,2.40
2019-03-09T00:52:30.016Z,3.37
2019-03-09T00:55:00.567Z,1.83
2019-03-09T00:57:31.046Z,2.13
2019-03-09T01:00:01.262Z,2.30
2019-03-09T01:02:32.653Z,2.40
2019-03-09T01:05:03.235Z,2.20
2019-03-09T01:07:33.854Z,3.00
2019-03-09T01:10:04.228Z,2.70
2019-03-09T01:12:34.533Z,2.47
2019-03-09T01:15:05.224Z,3.13
2019-03-09T01:17:35.520Z,3.17
2019-03-09T01:20:06.445Z,1.97
2019-03-09T01:22:36.865Z,2.00
2019-03-09T01:25:07.181Z,2.70
2019-03-09T01:27:38.090Z,3.83
2019-03-09T01:30:12.488Z,3.57
2019-03-09T01:32:42.685Z,2.43
2019-03-09T01:35:13.358Z,3.83
2019-03-09T01:37:43.792Z,4.33
2019-03-09T01:40:14.677Z,2.90
2019-03-09T01:42:44.845Z,3.43
2019-03-09T01:45:15.457Z,3.87
2019-03-09T01:47:45.829Z,3.43
2019-03-09T01:50:15.918Z,3.80
2019-03-09T01:52:46.245Z,3.77
2019-03-09T01:55:16.784Z,3.97
2019-03-09T01:57:47.021Z,3.43
2019-03-09T02:00:17.758Z,3.50
2019-03-09T02:02:47.940Z,4.67
2019-03-09T02:05:18.576Z,4.23
2019-03-09T02:07:48.984Z,4.30
2019-03-09T02:10:19.346Z,4.17
2019-03-09T02:12:50.076Z,4.00
2019-03-09T02:15:20.296Z,4.80
2019-03-09T02:17:50.465Z,4.13
2019-03-09T02:20:20.974Z,5.27
2019-03-09T02:22:51.305Z,3.80
2019-03-09T02:25:21.919Z,4.83
2019-03-09T02:27:52.204Z,3.60
2019-03-09T02:30:22.728Z,4.43
2019-03-09T02:32:53.197Z,3.20
2019-03-09T02:35:23.576Z,4.23
2019-03-09T02:37:53.737Z,4.27
2019-03-09T02:40:25.552Z,3.47
2019-03-09T02:42:55.591Z,3.87
2019-03-09T02:45:26.662Z,3.23
2019-03-09T02:47:58.252Z,4.30
2019-03-09T02:50:28.865Z,4.50
2019-03-09T02:52:59.061Z,3.10
2019-03-09T02:55:29.805Z,4.30
2019-03-09T02:57:59.851Z,4.30
2019-03-09T03:00:34.144Z,5.43
2019-03-09T03:03:05.194Z,3.60
2019-03-09T03:05:35.268Z,4.50
2019-03-09T03:08:05.378Z,5.03
2019-03-09T03:10:37.289Z,4.10
2019-03-09T03:13:08.361Z,4.10
2019-03-09T03:15:38.780Z,5.40
2019-03-09T03:18:09.383Z,5.60
2019-03-09T03:20:39.544Z,3.77
2019-03-09T03:23:10.236Z,4.40
2019-03-09T03:25:40.858Z,4.40
2019-03-09T03:28:11.942Z,4.80
2019-03-09T03:30:42.885Z,4.70
2019-03-09T03:33:12.973Z,4.67
2019-03-09T03:35:43.637Z,3.67
2019-03-09T03:38:14.278Z,5.50
2019-03-09T03:40:44.369Z,4.20
2019-03-09T03:43:16.204Z,4.20
2019-03-09T03:45:46.578Z,4.00
2019-03-09T03:48:16.933Z,3.73
2019-03-09T03:50:47.258Z,3.67
2019-03-09T03:53:17.903Z,4.20
2019-03-09T03:55:48.242Z,3.77
2019-03-09T03:58:19.476Z,4.37
2019-03-09T04:00:49.681Z,5.40
2019-03-09T04:03:19.801Z,4.43
2019-03-09T04:05:50.258Z,3.87
2019-03-09T04:08:21.308Z,4.37
2019-03-09T04:10:51.929Z,3.50
2019-03-09T04:13:22.056Z,4.70
2019-03-09T04:15:52.344Z,4.90
2019-03-09T04:18:22.385Z,4.53
2019-03-09T04:20:52.804Z,4.30
2019-03-09T04:23:23.168Z,4.07
2019-03-09T04:25:53.392Z,4.30
2019-03-09T04:28:23.772Z,5.07
2019-03-09T04:30:54.826Z,5.13
2019-03-09T04:33:25.200Z,3.97
2019-03-09T04:35:55.378Z,4.30
2019-03-09T04:38:25.915Z,3.70
2019-03-09T04:40:56.001Z,4.20
2019-03-09T04:43:26.504Z,5.13
2019-03-09T04:45:56.692Z,4.70
2019-03-09T04:48:27.052Z,4.70
2019-03-09T04:50:57.818Z,4.10
2019-03-09T04:53:27.969Z,5.40
2019-03-09T04:55:58.340Z,5.00
2019-03-09T04:58:28.808Z,4.90
2019-03-09T05:00:59.617Z,5.27
2019-03-09T05:03:30.223Z,5.13
2019-03-09T05:06:00.463Z,4.40
2019-03-09T05:08:55.414Z,4.97
2019-03-09T05:11:29.364Z,3.97
2019-03-09T05:14:25.636Z,4.30
2019-03-09T05:16:56.384Z,4.93
2019-03-09T05:19:27.172Z,3.83
2019-03-09T05:21:57.675Z,3.40
2019-03-09T05:24:27.804Z,3.30
2019-03-09T05:26:58.067Z,4.70
2019-03-09T05:29:29.404Z,3.70
2019-03-09T05:31:59.918Z,3.80
2019-03-09T05:34:30.205Z,3.10
2019-03-09T05:37:00.856Z,3.80
2019-03-09T05:39:31.157Z,4.70
2019-03-09T05:42:01.720Z,3.53
2019-03-09T05:44:31.789Z,4.40
2019-03-09T05:47:01.860Z,3.70
2019-03-09T05:49:31.913Z,3.53
2019-03-09T05:52:28.605Z,3.93
2019-03-09T05:55:00.416Z,3.53
2019-03-09T05:57:30.499Z,4.23
2019-03-09T06:00:00.681Z,4.33
2019-03-09T06:02:31.956Z,4.40
2019-03-09T06:05:02.344Z,3.70
2019-03-09T06:07:32.443Z,4.30
2019-03-09T06:10:03.088Z,4.20
2019-03-09T06:12:33.099Z,4.57
2019-03-09T06:15:03.258Z,4.30
2019-03-09T06:17:35.082Z,4.50
2019-03-09T06:20:05.499Z,3.80
2019-03-09T06:22:36.042Z,3.10
2019-03-09T06:25:06.785Z,4.40
2019-03-09T06:27:37.212Z,4.20
2019-03-09T06:30:07.718Z,5.73
2019-03-09T06:33:14.383Z,5.20
2019-03-09T06:35:45.199Z,6.87
2019-03-09T06:38:45.709Z,4.30
2019-03-09T06:41:18.512Z,5.93
2019-03-09T06:43:49.122Z,4.13
2019-03-09T06:46:19.493Z,4.20
2019-03-09T06:48:50.134Z,5.23
2019-03-09T06:51:20.253Z,5.17
2019-03-09T06:53:50.425Z,5.40
2019-03-09T06:56:21.234Z,5.50
2019-03-09T06:58:51.753Z,6.40
2019-03-09T07:01:22.925Z,5.13
2019-03-09T07:03:53.216Z,4.60
2019-03-09T07:06:23.596Z,3.80
2019-03-09T07:08:53.695Z,3.90
2019-03-09T07:11:23.728Z,5.23
2019-03-09T07:13:53.988Z,3.50
2019-03-09T07:16:24.004Z,4.17
2019-03-09T07:18:54.588Z,2.33
2019-03-09T07:21:24.913Z,3.57
2019-03-09T07:23:55.273Z,3.60
2019-03-09T07:26:25.697Z,2.50
2019-03-09T07:28:55.736Z,4.07
2019-03-09T07:31:25.807Z,3.50
2019-03-09T07:34:21.570Z,4.00
2019-03-09T07:36:51.904Z,4.10
2019-03-09T07:39:22.848Z,3.37
2019-03-09T07:41:53.365Z,2.87
2019-03-09T07:44:23.679Z,2.97
2019-03-09T07:46:54.548Z,3.47
2019-03-09T07:49:24.860Z,3.40
2019-03-09T07:51:55.186Z,3.00
2019-03-09T07:54:25.560Z,3.10
2019-03-09T07:56:55.984Z,3.30
2019-03-09T07:59:26.513Z,3.40
2019-03-09T08:01:56.824Z,3.90
2019-03-09T08:04:27.119Z,3.47
2019-03-09T08:06:57.690Z,4.97
2019-03-09T08:09:28.077Z,3.10
2019-03-09T08:11:58.440Z,3.83
2019-03-09T08:14:29.942Z,3.13
2019-03-09T08:17:00.021Z,2.60
2019-03-09T08:19:30.147Z,3.30
2019-03-09T08:22:00.307Z,2.97
2019-03-09T08:24:30.925Z,2.60
2019-03-09T08:27:01.256Z,3.13
2019-03-09T08:29:31.569Z,2.67
2019-03-09T08:32:01.911Z,2.37
2019-03-09T08:34:32.700Z,2.30
2019-03-09T08:37:03.156Z,2.37
2019-03-09T08:39:33.687Z,2.20
2019-03-09T08:42:03.766Z,2.10
2019-03-09T08:44:34.038Z,2.50
2019-03-09T08:47:08.593Z,2.10
2019-03-09T08:49:38.648Z,1.70
2019-03-09T08:52:09.225Z,2.20
2019-03-09T08:54:39.835Z,2.13
2019-03-09T08:57:12.026Z,3.10
2019-03-09T08:59:42.115Z,2.23
2019-03-09T09:02:12.496Z,2.00
2019-03-09T09:04:43.919Z,1.50
2019-03-09T09:07:14.220Z,1.27
2019-03-09T09:09:44.489Z,1.30
2019-03-09T09:12:14.517Z,1.07
2019-03-09T09:14:45.075Z,1.37
2019-03-09T09:17:15.324Z,1.00
2019-03-09T09:19:45.625Z,1.53
2019-03-09T09:22:15.941Z,1.50
2019-03-09T09:24:47.117Z,1.23
2019-03-09T09:27:17.447Z,1.47
2019-03-09T09:29:48.125Z,1.00
2019-03-09T09:32:18.638Z,1.00
2019-03-09T09:34:48.652Z,0.90
2019-03-09T09:37:20.012Z,1.07
2019-03-09T09:39:50.493Z,0.83
2019-03-09T09:42:20.923Z,0.70
2019-03-09T09:44:51.757Z,0.80
2019-03-09T09:47:21.803Z,0.90
2019-03-09T09:49:51.900Z,0.80
2019-03-09T09:52:21.940Z,0.70
2019-03-09T09:54:52.488Z,1.00
2019-03-09T09:57:22.568Z,0.90
2019-03-09T09:59:52.941Z,0.90
2019-03-09T10:02:22.976Z,0.70
2019-03-09T10:04:55.926Z,1.13
2019-03-09T10:07:26.059Z,0.97
2019-03-09T10:09:56.583Z,1.20
2019-03-09T10:12:26.969Z,1.17
2019-03-09T10:14:57.725Z,0.80
2019-03-09T10:17:27.895Z,1.00
2019-03-09T10:19:58.006Z,1.23
2019-03-09T10:22:28.081Z,1.10
2019-03-09T10:24:58.371Z,1.00
2019-03-09T10:27:28.809Z,1.00
2019-03-09T10:29:59.284Z,0.70
2019-03-09T10:32:30.272Z,0.70
2019-03-09T10:35:00.667Z,0.80
2019-03-09T10:37:32.136Z,1.00
2019-03-09T10:40:02.914Z,0.90
2019-03-09T10:42:34.026Z,1.80
2019-03-09T10:45:04.937Z,0.90
2019-03-09T10:47:35.299Z,1.63
2019-03-09T10:50:07.596Z,0.90
2019-03-09T10:52:37.366Z,0.80
2019-03-09T10:55:09.259Z,0.70
2019-03-09T10:57:40.641Z,0.77
2019-03-09T11:00:14.733Z,1.00
2019-03-09T11:02:44.909Z,0.80
2019-03-09T11:05:15.224Z,1.00
2019-03-09T11:07:45.827Z,0.60
2019-03-09T11:10:15.994Z,0.70
2019-03-09T11:12:48.560Z,0.70
2019-03-09T11:15:18.788Z,1.40
2019-03-09T11:17:48.960Z,0.80
2019-03-09T11:20:19.087Z,1.00
2019-03-09T11:22:49.503Z,0.70
2019-03-09T11:25:19.537Z,0.80
2019-03-09T11:27:49.918Z,0.70
2019-03-09T11:30:21.959Z,1.00
2019-03-09T11:32:53.076Z,0.70
2019-03-09T11:35:24.112Z,1.53
2019-03-09T11:37:54.240Z,0.97
2019-03-09T11:40:24.597Z,1.00
2019-03-09T11:42:55.631Z,1.43
2019-03-09T11:45:25.760Z,1.17
2019-03-09T11:47:57.338Z,0.90
2019-03-09T11:50:27.392Z,0.80
2019-03-09T11:52:57.732Z,0.90
2019-03-09T11:55:28.031Z,1.67
2019-03-09T11:57:58.164Z,0.87
2019-03-09T12:00:30.909Z,0.80
2019-03-09T12:03:01.717Z,1.10
2019-03-09T12:05:33.187Z,0.87
2019-03-09T12:08:03.368Z,0.83
2019-03-09T12:10:33.678Z,1.20
2019-03-09T12:13:05.262Z,0.90
2019-03-09T12:15:35.301Z,0.93
2019-03-09T12:18:05.970Z,1.00
2019-03-09T12:20:36.749Z,1.03
2019-03-09T12:23:19.710Z,1.13
2019-03-09T12:25:50.002Z,1.40
2019-03-09T12:28:22.216Z,1.10
2019-03-09T12:30:52.688Z,1.30
2019-03-09T12:33:22.919Z,1.20
2019-03-09T12:35:53.734Z,1.33
2019-03-09T12:38:24.557Z,1.10
2019-03-09T12:40:55.726Z,1.37
2019-03-09T12:43:26.410Z,1.07
2019-03-09T12:45:56.522Z,1.53
2019-03-09T12:48:28.460Z,0.90
2019-03-09T12:50:59.064Z,1.37
2019-03-09T12:53:29.709Z,1.30
2019-03-09T12:55:59.981Z,1.30
2019-03-09T12:58:31.658Z,1.23
2019-03-09T13:01:02.026Z,1.57
2019-03-09T13:03:32.417Z,1.00
2019-03-09T13:06:03.971Z,1.07
2019-03-09T13:08:35.078Z,0.80
2019-03-09T13:11:05.868Z,1.47
2019-03-09T13:13:36.363Z,0.70
2019-03-09T13:16:08.618Z,1.07
2019-03-09T13:18:38.841Z,1.53
2019-03-09T13:21:09.402Z,1.10
2019-03-09T13:23:39.932Z,1.00
2019-03-09T13:26:20.594Z,1.00
2019-03-09T13:28:51.241Z,1.73
2019-03-09T13:31:21.589Z,1.30
2019-03-09T13:33:51.794Z,0.80
2019-03-09T13:36:23.961Z,1.27
2019-03-09T13:39:01.610Z,1.13
2019-03-09T13:41:34.834Z,1.50
2019-03-09T13:44:05.393Z,1.00
2019-03-09T13:46:36.127Z,0.90
2019-03-09T13:49:17.533Z,1.30
2019-03-09T13:51:56.896Z,0.93
2019-03-09T13:54:46.473Z,1.20
2019-03-09T13:57:21.766Z,0.90
2019-03-09T13:59:54.383Z,1.00
2019-03-09T14:02:26.019Z,1.30
2019-03-09T14:04:59.771Z,1.53
2019-03-09T14:07:30.203Z,1.10
2019-03-09T14:10:00.370Z,1.00
2019-03-09T14:12:30.794Z,1.00
2019-03-09T14:15:08.124Z,1.10
2019-03-09T14:17:38.236Z,0.93
2019-03-09T14:20:10.575Z,1.40
2019-03-09T14:22:42.877Z,0.80
2019-03-09T14:25:13.446Z,1.00
2019-03-09T14:27:58.183Z,1.40
2019-03-09T14:30:28.289Z,1.20
2019-03-09T14:32:58.651Z,1.30
2019-03-09T14:35:29.600Z,1.07
2019-03-09T14:38:03.502Z,1.23
2019-03-09T14:40:38.087Z,1.60
2019-03-09T14:43:08.705Z,1.17
2019-03-09T14:45:39.281Z,1.10
2019-03-09T14:48:13.716Z,1.60
2019-03-09T14:50:44.949Z,2.60
2019-03-09T14:53:15.160Z,1.87
2019-03-09T14:55:49.592Z,1.23
2019-03-09T14:58:20.362Z,1.93
2019-03-09T15:00:50.938Z,1.53
2019-03-09T15:03:21.371Z,2.10
2019-03-09T15:06:07.876Z,2.23
2019-03-09T15:08:59.519Z,2.00
2019-03-09T15:11:30.362Z,2.10
2019-03-09T15:14:02.945Z,3.97
2019-03-09T15:16:33.346Z,4.43
2019-03-09T15:19:03.699Z,4.60
2019-03-09T15:21:34.426Z,4.53
2019-03-09T15:24:04.769Z,3.83
2019-03-09T15:26:35.705Z,4.30
2019-03-09T15:29:06.198Z,4.73
2019-03-09T15:31:36.623Z,4.13
2019-03-09T15:34:06.726Z,4.37
2019-03-09T15:36:37.176Z,4.33
2019-03-09T15:39:08.716Z,4.83
2019-03-09T15:41:41.240Z,5.50
2019-03-09T15:44:11.944Z,4.10
2019-03-09T15:46:42.912Z,5.87
2019-03-09T15:49:21.057Z,5.10
2019-03-09T15:51:51.403Z,5.37
2019-03-09T15:54:21.860Z,5.90
2019-03-09T15:56:54.448Z,7.07
2019-03-09T15:59:25.568Z,6.53
2019-03-09T16:01:56.333Z,4.33
2019-03-09T16:04:26.795Z,4.03
2019-03-09T16:06:58.971Z,3.43
2019-03-09T16:09:29.644Z,4.80
2019-03-09T16:11:59.801Z,2.53
2019-03-09T16:14:31.712Z,2.60
2019-03-09T16:17:07.134Z,2.00
2019-03-09T16:19:39.124Z,2.33
2019-03-09T16:22:10.507Z,3.50
2019-03-09T16:24:40.823Z,2.50
2019-03-09T16:27:12.686Z,2.33
2019-03-09T16:29:43.257Z,2.57
2019-03-09T16:32:13.810Z,2.27
2019-03-09T16:34:48.102Z,2.37
2019-03-09T16:37:20.541Z,3.00
2019-03-09T16:40:13.083Z,2.60
2019-03-09T16:42:43.759Z,2.50
2019-03-09T16:45:14.932Z,2.50
2019-03-09T16:47:45.647Z,3.60
2019-03-09T16:50:22.901Z,2.90
2019-03-09T16:52:53.442Z,3.90
2019-03-09T16:55:23.543Z,2.70
2019-03-09T16:57:56.148Z,1.63
2019-03-09T17:00:26.219Z,1.70
2019-03-09T17:02:56.339Z,1.13
2019-03-09T17:05:27.365Z,1.90
2019-03-09T17:07:57.813Z,1.47
2019-03-09T17:10:28.133Z,1.30
2019-03-09T17:12:58.712Z,1.10
2019-03-09T17:15:30.842Z,1.00
2019-03-09T17:18:01.726Z,1.00
2019-03-09T17:20:32.546Z,1.70
2019-03-09T17:23:02.885Z,1.33
2019-03-09T17:25:40.397Z,1.30
2019-03-09T17:28:18.424Z,0.90
2019-03-09T17:30:48.807Z,0.97
2019-03-09T17:33:20.244Z,0.90
2019-03-09T17:35:50.546Z,1.27
2019-03-09T17:38:21.179Z,1.67
2019-03-09T17:41:10.805Z,1.20
2019-03-09T17:47:06.913Z,1.00
2019-03-09T17:49:49.700Z,1.37
2019-03-09T17:52:31.399Z,1.37
2019-03-09T17:55:14.124Z,1.70
2019-03-09T17:57:56.197Z,0.80
2019-03-09T18:00:42.869Z,1.20
2019-03-09T18:03:25.266Z,1.13
2019-03-09T18:06:07.721Z,1.23
2019-03-09T18:08:49.648Z,0.97
2019-03-09T18:11:32.157Z,0.87
2019-03-09T18:14:14.374Z,0.97
2019-03-09T18:16:56.488Z,1.20
2019-03-09T18:19:39.385Z,1.57
2019-03-09T18:22:21.878Z,1.47
2019-03-09T18:25:02.509Z,1.20
2019-03-09T18:27:44.361Z,0.83
2019-03-09T18:30:27.230Z,1.67
2019-03-09T18:33:09.570Z,1.70
2019-03-09T18:35:51.761Z,1.57
2019-03-09T18:38:34.193Z,1.47
2019-03-09T18:41:16.227Z,1.10
2019-03-09T18:43:58.764Z,1.50
2019-03-09T18:46:41.698Z,2.63
2019-03-09T18:49:24.060Z,4.55
2019-03-09T18:52:05.900Z,3.02
2019-03-09T18:54:49.809Z,3.50
2019-03-09T18:57:32.322Z,8.70
2019-03-09T19:00:14.597Z,3.30
2019-03-09T19:02:56.593Z,1.73
2019-03-09T19:05:38.536Z,1.10
2019-03-09T19:08:20.976Z,1.03
2019-03-09T19:11:03.681Z,1.53
2019-03-09T19:13:45.797Z,1.57
2019-03-09T19:16:28.273Z,1.63
2019-03-09T19:19:10.785Z,1.53
2019-03-09T19:21:51.166Z,1.43
2019-03-09T19:24:41.280Z,2.03
2019-03-09T19:27:11.598Z,1.60
2019-03-09T19:29:41.665Z,1.80
2019-03-09T19:32:11.692Z,1.67
2019-03-09T19:34:41.949Z,2.03
2019-03-09T19:37:24.277Z,2.03
2019-03-09T19:40:06.173Z,2.13
2019-03-09T19:42:47.920Z,1.73
2019-03-09T19:45:29.977Z,1.40
2019-03-09T19:48:12.037Z,1.30
2019-03-09T19:50:54.521Z,1.80
2019-03-09T19:53:34.982Z,1.33
2019-03-09T19:56:24.527Z,1.43
2019-03-09T19:59:08.300Z,1.50
2019-03-09T20:01:51.549Z,1.90
2019-03-09T20:04:33.630Z,2.30
2019-03-09T20:07:15.448Z,1.83
2019-03-09T20:09:57.588Z,2.63
2019-03-09T20:12:39.581Z,2.90
2019-03-09T20:15:22.053Z,2.87
2019-03-09T20:18:03.725Z,2.10
2019-03-09T20:20:44.357Z,3.13
2019-03-09T20:23:26.137Z,2.90
2019-03-09T20:26:08.788Z,3.27
2019-03-09T20:28:51.083Z,4.00
2019-03-09T20:31:33.886Z,2.97
2019-03-09T20:34:16.212Z,4.37
2019-03-09T20:36:58.461Z,3.97
2019-03-09T20:39:41.541Z,4.20
2019-03-09T20:42:23.906Z,4.03
2019-03-09T20:45:05.644Z,3.13
2019-03-09T20:47:49.592Z,3.17
2019-03-09T20:50:31.804Z,0.20
2019-03-09T20:53:14.116Z,0.30
2019-03-09T20:55:56.996Z,0.30
2019-03-09T20:58:39.863Z,0.20
2019-03-09T21:01:22.109Z,0.20
2019-03-09T21:04:04.201Z,0.23
2019-03-09T21:06:46.581Z,0.20
2019-03-09T21:09:27.187Z,0.30
2019-03-09T21:12:17.055Z,0.20
2019-03-09T21:15:00.343Z,0.30
2019-03-09T21:17:42.632Z,0.30
2019-03-09T21:20:25.360Z,0.20
2019-03-09T21:23:08.320Z,0.20
2019-03-09T21:25:50.554Z,0.20
2019-03-09T21:28:31.239Z,0.20
2019-03-09T21:31:20.854Z,0.20
2019-03-09T21:34:03.580Z,0.20
2019-03-09T21:36:45.985Z,0.20
2019-03-09T21:39:28.875Z,0.30
2019-03-09T21:42:11.684Z,0.20
2019-03-09T21:44:54.347Z,0.30
2019-03-09T21:47:37.328Z,0.20
2019-03-09T21:50:19.754Z,0.30
2019-03-09T21:53:02.077Z,0.20
2019-03-09T21:55:44.280Z,0.20
2019-03-09T21:58:26.048Z,0.30
2019-03-09T22:01:08.382Z,0.20
2019-03-09T22:03:51.050Z,0.30
2019-03-09T22:06:32.886Z,0.27
2019-03-09T22:09:15.160Z,0.30
2019-03-09T22:11:57.236Z,0.30
2019-03-09T22:14:39.791Z,0.30
2019-03-09T22:17:21.506Z,0.30
2019-03-09T22:20:04.052Z,0.20
2019-03-09T22:22:52.390Z,0.20
2019-03-09T22:25:24.824Z,0.70
2019-03-09T22:28:14.149Z,0.90
2019-03-09T22:30:56.957Z,1.07
2019-03-09T22:33:39.421Z,0.90
2019-03-09T22:36:22.125Z,1.60
2019-03-09T22:39:05.625Z,0.80
2019-03-09T22:41:48.871Z,1.27
2019-03-09T22:44:31.533Z,0.93
2019-03-09T22:47:13.986Z,2.70
2019-03-09T22:49:56.742Z,1.60
2019-03-09T22:52:39.246Z,0.73
2019-03-09T22:55:21.789Z,1.00
2019-03-09T22:58:02.433Z,0.97
2019-03-09T23:00:51.820Z,0.73
2019-03-09T23:03:35.496Z,0.90
2019-03-09T23:06:18.033Z,0.57
2019-03-09T23:09:00.323Z,0.70
2019-03-09T23:11:42.641Z,0.80
2019-03-09T23:14:25.805Z,0.70
2019-03-09T23:17:09.219Z,0.80
2019-03-09T23:19:51.849Z,0.80
2019-03-09T23:22:33.846Z,0.60
2019-03-09T23:25:16.100Z,0.70
2019-03-09T23:27:57.772Z,0.80
2019-03-09T23:30:39.636Z,0.80
2019-03-09T23:33:21.952Z,0.97
2019-03-09T23:36:04.513Z,1.13
2019-03-09T23:38:46.695Z,0.90
2019-03-09T23:41:29.377Z,1.30
2019-03-09T23:44:11.824Z,0.90
2019-03-09T23:46:53.632Z,0.87
2019-03-09T23:49:36.195Z,1.07
2019-03-09T23:52:19.236Z,0.80
2019-03-09T23:54:59.823Z,0.70
2019-03-09T23:57:49.505Z,0.70
